createdAt,value
2022-12-14T00:00:42.239Z,99244.06
2022-12-14T00:04:45.287Z,99236.25
2022-12-14T00:08:50.449Z,99232.88
2022-12-14T00:12:54.895Z,99235.47
2022-12-14T00:16:57.913Z,99216.56
2022-12-14T00:21:05.628Z,99214.78
2022-12-14T00:25:09.350Z,99204.94
2022-12-14T00:29:13.804Z,99198.75
2022-12-14T00:33:16.845Z,99194.56
2022-12-14T00:37:20.262Z,99200.53
2022-12-14T00:41:23.544Z,99202.44
2022-12-14T00:45:27.996Z,99207.72
2022-12-14T00:49:31.059Z,99213.00
2022-12-14T00:53:34.119Z,99217.34
2022-12-14T00:57:37.210Z,99195.66
2022-12-14T01:01:41.700Z,99195.50
2022-12-14T01:05:49.249Z,99197.13
2022-12-14T01:09:52.613Z,99192.66
2022-12-14T01:13:57.368Z,99180.44
2022-12-14T01:18:02.045Z,99173.72
2022-12-14T01:22:05.163Z,99194.28
2022-12-14T01:26:08.284Z,99187.28
2022-12-14T01:30:12.179Z,99185.53
2022-12-14T01:34:17.357Z,99189.94
2022-12-14T01:38:20.341Z,99191.81
2022-12-14T01:42:23.936Z,99195.22
2022-12-14T01:46:34.929Z,99188.47
2022-12-14T01:50:44.331Z,99180.72
2022-12-14T01:54:50.403Z,99176.38
2022-12-14T01:58:53.873Z,99169.50
2022-12-14T02:03:01.770Z,99165.28
2022-12-14T02:07:06.559Z,99162.78
2022-12-14T02:11:09.629Z,99141.50
2022-12-14T02:15:15.192Z,99113.13
2022-12-14T02:19:18.284Z,99113.41
2022-12-14T02:23:50.521Z,99116.78
2022-12-14T02:28:09.260Z,99107.56
2022-12-14T02:32:33.312Z,99110.28
2022-12-14T02:36:42.860Z,99089.63
2022-12-14T02:40:56.587Z,99080.34
2022-12-14T02:45:08.415Z,99084.69
2022-12-14T02:49:22.219Z,99090.78
2022-12-14T02:53:30.842Z,99089.84
2022-12-14T02:57:42.115Z,99089.91
2022-12-14T03:01:48.282Z,99087.59
2022-12-14T03:05:59.158Z,99077.50
2022-12-14T03:10:07.388Z,99089.53
2022-12-14T03:14:18.462Z,99087.88
2022-12-14T03:18:24.620Z,99088.06
2022-12-14T03:22:35.001Z,99082.25
2022-12-14T03:26:47.524Z,99084.13
2022-12-14T03:31:00.279Z,99061.88
2022-12-14T03:35:08.804Z,99043.84
2022-12-14T03:39:18.411Z,99075.72
2022-12-14T03:43:28.617Z,99043.41
2022-12-14T03:47:50.932Z,99042.63
2022-12-14T03:52:04.432Z,99040.28
2022-12-14T03:56:14.007Z,99033.53
2022-12-14T04:00:22.588Z,99029.47
2022-12-14T04:04:31.693Z,99015.03
2022-12-14T04:08:42.471Z,99023.72
2022-12-14T04:13:06.841Z,99001.50
2022-12-14T04:17:31.478Z,98980.13
2022-12-14T04:21:40.806Z,99017.16
2022-12-14T04:26:05.992Z,98991.63
2022-12-14T04:30:13.266Z,98981.44
2022-12-14T04:34:19.313Z,98987.78
2022-12-14T04:38:28.580Z,98976.63
2022-12-14T04:42:37.345Z,98979.28
2022-12-14T04:46:43.085Z,98964.81
2022-12-14T04:50:50.499Z,98941.53
2022-12-14T04:54:59.075Z,98960.50
2022-12-14T04:59:02.431Z,98944.28
2022-12-14T05:03:19.679Z,98919.44
2022-12-14T05:07:35.049Z,98918.78
2022-12-14T05:11:53.700Z,98913.00
2022-12-14T05:15:59.569Z,98892.38
2022-12-14T05:20:04.277Z,98904.53
2022-12-14T05:24:07.938Z,98901.13
2022-12-14T05:28:11.954Z,98909.22
2022-12-14T05:32:15.085Z,98889.56
2022-12-14T05:36:19.882Z,98887.16
2022-12-14T05:40:23.253Z,98896.16
2022-12-14T05:44:26.300Z,98904.81
2022-12-14T05:48:29.403Z,98900.00
2022-12-14T05:52:33.835Z,98906.25
2022-12-14T05:56:37.026Z,98905.59
2022-12-14T06:00:40.315Z,98923.06
2022-12-14T06:04:43.450Z,98916.25
2022-12-14T06:08:48.181Z,98900.88
2022-12-14T06:12:51.397Z,98912.25
2022-12-14T06:16:54.466Z,98907.88
2022-12-14T06:20:58.700Z,98908.81
2022-12-14T06:25:03.113Z,98902.94
2022-12-14T06:29:06.173Z,98908.19
2022-12-14T06:33:09.163Z,98915.25
2022-12-14T06:37:12.258Z,98910.94
2022-12-14T06:41:16.801Z,98896.31
2022-12-14T06:45:19.795Z,98856.78
2022-12-14T06:49:23.349Z,98875.75
2022-12-14T06:53:26.779Z,98881.81
2022-12-14T06:57:31.404Z,98863.75
2022-12-14T07:01:34.525Z,98887.06
2022-12-14T07:05:38.436Z,98891.25
2022-12-14T07:09:41.492Z,98871.50
2022-12-14T07:13:46.065Z,98857.78
2022-12-14T07:17:52.074Z,98833.66
2022-12-14T07:21:55.460Z,98827.69
2022-12-14T07:26:02.440Z,98819.16
2022-12-14T07:30:09.037Z,98847.66
2022-12-14T07:34:14.106Z,98853.81
2022-12-14T07:38:17.178Z,98844.44
2022-12-14T07:42:20.390Z,98848.84
2022-12-14T07:46:26.345Z,98847.19
2022-12-14T07:50:29.551Z,98846.44
2022-12-14T07:54:32.529Z,98863.84
2022-12-14T07:58:36.695Z,98866.41
2022-12-14T08:02:41.712Z,98870.78
2022-12-14T08:06:46.834Z,98865.72
2022-12-14T08:10:50.211Z,98862.31
2022-12-14T08:14:53.294Z,98856.34
2022-12-14T08:18:59.664Z,98853.78
2022-12-14T08:23:02.780Z,98851.28
2022-12-14T08:27:05.801Z,98850.47
2022-12-14T08:31:10.638Z,98841.06
2022-12-14T08:35:15.201Z,98849.72
2022-12-14T08:39:18.308Z,98853.13
2022-12-14T08:43:25.001Z,98854.09
2022-12-14T08:47:28.329Z,98850.75
2022-12-14T08:51:32.767Z,98851.66
2022-12-14T08:55:38.972Z,98838.84
2022-12-14T09:04:08.201Z,98832.09
2022-12-14T09:08:12.872Z,98843.38
2022-12-14T09:12:16.105Z,98838.38
2022-12-14T09:16:21.896Z,98835.91
2022-12-14T09:20:25.011Z,98828.09
2022-12-14T09:24:29.611Z,98821.19
2022-12-14T09:28:34.726Z,98810.00
2022-12-14T09:32:37.788Z,98805.94
2022-12-14T09:36:40.900Z,98805.13
2022-12-14T09:40:51.318Z,98790.50
2022-12-14T09:45:01.799Z,98786.28
2022-12-14T09:49:06.270Z,98770.06
2022-12-14T09:53:15.366Z,98765.78
2022-12-14T09:57:29.775Z,98757.31
2022-12-14T10:02:13.715Z,98748.69
2022-12-14T10:06:34.125Z,98747.09
2022-12-14T10:10:49.357Z,98743.91
2022-12-14T10:15:11.320Z,98736.34
2022-12-14T10:19:28.902Z,98730.38
2022-12-14T10:23:32.891Z,98715.72
2022-12-14T10:28:01.207Z,98713.13
2022-12-14T10:32:13.448Z,98720.19
2022-12-14T10:36:21.837Z,98713.31
2022-12-14T10:40:34.069Z,98709.00
2022-12-14T10:44:51.520Z,98693.63
2022-12-14T10:49:07.547Z,98673.97
2022-12-14T10:53:17.478Z,98673.00
2022-12-14T10:57:21.853Z,98657.44
2022-12-14T11:01:25.252Z,98652.41
2022-12-14T11:05:37.623Z,98647.13
2022-12-14T11:09:41.454Z,98643.72
2022-12-14T11:13:52.879Z,98635.13
2022-12-14T11:18:02.977Z,98635.06
2022-12-14T11:22:20.295Z,98628.09
2022-12-14T11:26:29.879Z,98615.16
2022-12-14T11:30:33.250Z,98614.38
2022-12-14T11:34:39.389Z,98608.38
2022-12-14T11:38:43.832Z,98602.44
2022-12-14T11:42:50.562Z,98606.06
2022-12-14T11:46:56.461Z,98596.59
2022-12-14T11:51:11.273Z,98600.00
2022-12-14T11:55:24.710Z,98592.34
2022-12-14T11:59:38.070Z,98585.28
2022-12-14T12:03:47.114Z,98582.69
2022-12-14T12:07:55.437Z,98573.25
2022-12-14T12:12:00.127Z,98568.00
2022-12-14T12:16:07.288Z,98560.03
2022-12-14T12:20:23.718Z,98558.28
2022-12-14T12:24:32.420Z,98557.34
2022-12-14T12:28:44.821Z,98560.78
2022-12-14T12:32:53.639Z,98543.63
2022-12-14T12:37:25.249Z,98536.72
2022-12-14T12:41:30.695Z,98525.50
2022-12-14T12:45:39.232Z,98541.03
2022-12-14T12:49:42.291Z,98519.44
2022-12-14T12:53:49.022Z,98516.81
2022-12-14T12:57:54.867Z,98482.25
2022-12-14T13:02:04.485Z,98468.44
2022-12-14T13:06:16.718Z,98454.47
2022-12-14T13:10:24.033Z,98450.25
2022-12-14T13:14:33.059Z,98462.91
2022-12-14T13:19:08.860Z,98467.19
2022-12-14T13:23:44.346Z,98481.78
2022-12-14T13:27:51.212Z,98457.56
2022-12-14T13:32:03.642Z,98446.25
2022-12-14T13:36:35.257Z,98441.88
2022-12-14T13:41:02.703Z,98438.41
2022-12-14T13:45:16.234Z,98428.78
2022-12-14T13:49:23.046Z,98427.00
2022-12-14T13:53:30.542Z,98422.63
2022-12-14T13:57:33.656Z,98408.84
2022-12-14T14:02:05.129Z,98408.84
2022-12-14T14:06:10.604Z,98404.53
2022-12-14T14:10:32.195Z,98390.72
2022-12-14T14:14:48.838Z,98404.59
2022-12-14T14:18:58.503Z,98408.00
2022-12-14T14:23:29.475Z,98397.66
2022-12-14T14:27:38.802Z,98384.81
2022-12-14T14:31:48.300Z,98373.69
2022-12-14T14:35:51.585Z,98364.22
2022-12-14T14:40:18.704Z,98364.19
2022-12-14T14:44:38.958Z,98365.13
2022-12-14T14:48:44.971Z,98357.38
2022-12-14T14:53:13.999Z,98360.84
2022-12-14T14:57:35.154Z,98372.91
2022-12-14T15:01:45.623Z,98395.25
2022-12-14T15:05:49.768Z,98404.78
2022-12-14T15:10:00.845Z,98404.81
2022-12-14T15:14:08.155Z,98413.44
2022-12-14T15:18:22.890Z,98433.38
2022-12-14T15:22:28.613Z,98407.41
2022-12-14T15:26:35.398Z,98418.56
2022-12-14T15:30:39.835Z,98411.72
2022-12-14T15:34:53.356Z,98387.53
2022-12-14T15:38:58.702Z,98414.38
2022-12-14T15:43:03.778Z,98389.38
2022-12-14T15:47:07.922Z,98406.63
2022-12-14T15:51:17.939Z,98410.13
2022-12-14T15:55:30.804Z,98408.44
2022-12-14T15:59:36.982Z,98389.41
2022-12-14T16:03:43.832Z,98380.72
2022-12-14T16:07:52.391Z,98396.34
2022-12-14T16:11:57.984Z,98379.94
2022-12-14T16:16:08.017Z,98359.22
2022-12-14T16:20:19.949Z,98350.50
2022-12-14T16:24:26.650Z,98359.97
2022-12-14T16:28:32.676Z,98358.28
2022-12-14T16:32:36.094Z,98355.69
2022-12-14T16:36:39.185Z,98385.13
2022-12-14T16:40:53.026Z,98391.97
2022-12-14T16:44:56.248Z,98406.66
2022-12-14T16:49:20.802Z,98395.50
2022-12-14T16:53:26.157Z,98415.47
2022-12-14T16:57:30.878Z,98421.53
2022-12-14T17:01:42.626Z,98435.31
2022-12-14T17:05:54.019Z,98424.13
2022-12-14T17:09:57.405Z,98407.75
2022-12-14T17:14:01.928Z,98392.22
2022-12-14T17:18:08.062Z,98377.59
2022-12-14T17:22:17.506Z,98380.22
2022-12-14T17:26:23.403Z,98381.94
2022-12-14T17:30:28.784Z,98373.34
2022-12-14T17:34:32.038Z,98391.44
2022-12-14T17:38:35.314Z,98381.09
2022-12-14T17:42:40.811Z,98365.53
2022-12-14T17:46:48.696Z,98365.56
2022-12-14T17:50:52.264Z,98358.72
2022-12-14T17:54:55.454Z,98352.66
2022-12-14T17:58:58.498Z,98356.97
2022-12-14T18:03:03.955Z,98354.41
2022-12-14T18:07:07.479Z,98345.78
2022-12-14T18:11:14.658Z,98369.09
2022-12-14T18:15:20.724Z,98368.22
2022-12-14T18:19:25.373Z,98368.22
2022-12-14T18:23:29.849Z,98367.38
2022-12-14T18:27:33.393Z,98373.44
2022-12-14T18:31:38.944Z,98366.53
2022-12-14T18:35:44.318Z,98370.88
2022-12-14T18:39:49.369Z,98384.72
2022-12-14T18:43:54.287Z,98383.03
2022-12-14T18:47:57.584Z,98382.16
2022-12-14T18:52:02.014Z,98375.25
2022-12-14T18:56:09.292Z,98372.66
2022-12-14T19:00:15.051Z,98395.16
2022-12-14T19:04:18.189Z,98378.78
2022-12-14T19:08:22.592Z,98371.88
2022-12-14T19:12:25.920Z,98383.16
2022-12-14T19:16:29.295Z,98402.19
2022-12-14T19:20:32.484Z,98404.81
2022-12-14T19:24:37.462Z,98408.28
2022-12-14T19:28:40.522Z,98414.41
2022-12-14T19:32:44.209Z,98410.13
2022-12-14T19:36:50.588Z,98417.09
2022-12-14T19:41:03.344Z,98416.16
2022-12-14T19:45:08.204Z,98416.19
2022-12-14T19:49:14.764Z,98414.47
2022-12-14T19:53:23.251Z,98411.84
2022-12-14T19:57:29.062Z,98422.13
2022-12-14T20:01:38.812Z,98415.19
2022-12-14T20:05:51.334Z,98416.03
2022-12-14T20:09:54.588Z,98427.31
2022-12-14T20:14:03.290Z,98429.84
2022-12-14T20:18:07.467Z,98432.41
2022-12-14T20:22:10.803Z,98425.47
2022-12-14T20:26:17.661Z,98437.59
2022-12-14T20:30:22.137Z,98434.13
2022-12-14T20:34:25.407Z,98434.13
2022-12-14T20:38:29.487Z,98430.66
2022-12-14T20:42:32.605Z,98432.41
2022-12-14T20:46:39.411Z,98440.25
2022-12-14T20:50:44.278Z,98445.50
2022-12-14T20:54:54.074Z,98458.50
2022-12-14T20:58:57.282Z,98441.38
2022-12-14T21:03:01.921Z,98425.00
2022-12-14T21:07:05.145Z,98436.31
2022-12-14T21:11:22.209Z,98439.72
2022-12-14T21:15:25.516Z,98454.47
2022-12-14T21:19:30.071Z,98444.91
2022-12-14T21:23:33.388Z,98453.53
2022-12-14T21:27:39.005Z,98451.00
2022-12-14T21:31:44.348Z,98459.66
2022-12-14T21:35:48.804Z,98464.06
2022-12-14T21:39:55.006Z,98464.09
2022-12-14T21:44:00.499Z,98448.59
2022-12-14T21:48:03.790Z,98441.63
2022-12-14T21:52:08.268Z,98446.91
2022-12-14T21:56:34.097Z,98457.28
2022-12-14T22:00:39.158Z,98465.09
2022-12-14T22:04:46.747Z,98455.56
2022-12-14T22:08:51.414Z,98466.91
2022-12-14T22:12:54.523Z,98461.69
2022-12-14T22:16:57.615Z,98462.50
2022-12-14T22:21:04.378Z,98459.97
2022-12-14T22:25:09.620Z,98459.16
2022-12-14T22:29:12.857Z,98446.09
2022-12-14T22:33:16.059Z,98449.56
2022-12-14T22:37:19.055Z,98450.44
2022-12-14T22:41:23.581Z,98451.19
2022-12-14T22:45:27.915Z,98446.88
2022-12-14T22:49:30.926Z,98436.44
2022-12-14T22:53:34.728Z,98443.41
2022-12-14T22:57:41.740Z,98450.41
2022-12-14T23:01:50.086Z,98463.34
2022-12-14T23:06:00.354Z,98465.94
2022-12-14T23:10:23.163Z,98475.44
2022-12-14T23:14:44.993Z,98478.91
2022-12-14T23:19:05.261Z,98483.34
2022-12-14T23:23:26.977Z,98489.47
2022-12-14T23:27:47.741Z,98497.22
2022-12-14T23:32:09.756Z,98492.03
2022-12-14T23:36:30.355Z,98504.94
2022-12-14T23:40:50.579Z,98502.31
2022-12-14T23:45:10.932Z,98497.00
2022-12-14T23:49:33.146Z,98499.47
2022-12-14T23:53:53.552Z,98502.81
2022-12-14T23:58:15.849Z,98514.09
